Time,TemperatureF,DewpointF,PressureIn,WindDirection,WindDirectionDegrees,WindSpeedMPH,WindSpeedGustMPH,Humidity,HourlyPrecipIn,Conditions,Clouds,dailyrainin,SoftwareType,DateUTC
2013-07-23 00:33:00,72.0,60.0,30.00,North,0,0.0,1.0,67,0.00,,,-99.99,,2013-07-23 07:33:00,
2013-07-23 00:42:00,72.0,60.0,30.00,North,0,0.0,1.0,67,0.00,,,-99.99,,2013-07-23 07:42:00,
2013-07-23 01:33:00,70.0,60.0,29.99,North,0,0.0,3.0,70,0.00,,,-99.99,,2013-07-23 08:33:00,
2013-07-23 01:43:00,70.0,60.0,29.99,North,0,0.0,3.0,70,0.00,,,-99.99,,2013-07-23 08:43:00,
2013-07-23 02:33:00,70.0,60.0,29.99,West,270,6.0,8.0,71,0.00,,,-99.99,,2013-07-23 09:33:00,
2013-07-23 02:42:00,70.0,60.0,29.99,West,270,6.0,8.0,71,0.00,,,-99.99,,2013-07-23 09:42:00,
2013-07-23 03:32:00,70.0,60.0,29.99,North,0,0.0,1.0,71,0.00,,,-99.99,,2013-07-23 10:32:00,
2013-07-23 03:43:00,70.0,60.0,29.99,North,0,0.0,1.0,71,0.00,,,-99.99,,2013-07-23 10:43:00,
2013-07-23 04:43:00,68.0,59.0,30.01,North,0,0.0,1.0,74,0.00,,,-99.99,,2013-07-23 11:43:00,
2013-07-23 05:33:00,66.0,59.0,30.02,North,0,0.0,2.0,77,0.00,,,-99.99,,2013-07-23 12:33:00,
2013-07-23 05:43:00,66.0,59.0,30.02,North,0,0.0,2.0,77,0.00,,,-99.99,,2013-07-23 12:43:00,
2013-07-23 06:32:00,67.0,58.0,30.02,West,270,4.0,5.0,73,0.00,,,-99.99,,2013-07-23 13:32:00,
2013-07-23 06:43:00,67.0,58.0,30.02,West,270,4.0,5.0,73,0.00,,,-99.99,,2013-07-23 13:43:00,
2013-07-23 07:44:00,68.0,58.0,30.02,West,270,2.0,5.0,71,0.00,,,-99.99,,2013-07-23 14:44:00,
2013-07-23 08:43:00,75.0,58.0,30.02,North,0,0.0,3.0,55,0.00,,,-99.99,,2013-07-23 15:43:00,
2013-07-23 09:33:00,81.0,54.0,30.03,North,0,0.0,4.0,39,0.00,,,-99.99,,2013-07-23 16:33:00,
2013-07-23 09:43:00,81.0,54.0,30.03,North,0,0.0,4.0,39,0.00,,,-99.99,,2013-07-23 16:43:00,
2013-07-23 10:32:00,83.0,56.0,30.03,North,0,0.0,5.0,40,0.00,,,-99.99,,2013-07-23 17:32:00,
2013-07-23 10:42:00,83.0,56.0,30.03,North,0,0.0,5.0,40,0.00,,,-99.99,,2013-07-23 17:42:00,
2013-07-23 10:45:00,85.0,56.0,30.02,North,0,0.0,6.0,37,0.00,,,-99.99,,2013-07-23 17:45:00,
2013-07-23 13:34:00,92.0,59.0,29.99,East,90,3.0,6.0,33,0.00,,,-99.99,,2013-07-23 20:34:00,
2013-07-23 13:44:00,92.0,59.0,29.99,East,90,3.0,6.0,33,0.00,,,-99.99,,2013-07-23 20:44:00,
2013-07-23 13:45:00,94.0,60.0,29.97,WSW,250,2.0,15.0,32,0.00,,,-99.99,,2013-07-23 20:45:00,
2013-07-23 15:43:00,93.0,59.0,29.95,WSW,240,7.0,19.0,32,0.00,,,-99.99,,2013-07-23 22:43:00,
2013-07-23 16:43:00,91.0,58.0,29.94,SW,230,13.0,18.0,33,0.00,,,-99.99,,2013-07-23 23:43:00,
2013-07-23 16:45:00,89.0,58.0,29.94,WSW,250,9.0,22.0,35,0.00,,,-99.99,,2013-07-23 23:45:00,
2013-07-23 18:43:00,86.0,57.0,29.92,West,260,12.0,19.0,38,0.00,,,-99.99,,2013-07-24 01:43:00,
2013-07-23 18:45:00,83.0,56.0,29.93,SSW,210,10.0,20.0,40,0.00,,,-99.99,,2013-07-24 01:45:00,
2013-07-23 20:34:00,81.0,53.0,29.94,SSW,210,7.0,18.0,38,0.00,,,-99.99,,2013-07-24 03:34:00,
2013-07-23 20:43:00,81.0,53.0,29.94,SSW,210,7.0,18.0,38,0.00,,,-99.99,,2013-07-24 03:43:00,
2013-07-23 21:43:00,79.0,53.0,29.96,West,260,3.0,12.0,40,0.00,,,-99.99,,2013-07-24 04:43:00,
2013-07-23 22:32:00,77.0,56.0,29.98,WNW,290,2.0,9.0,49,0.00,,,-99.99,,2013-07-24 05:32:00,
2013-07-23 22:43:00,77.0,56.0,29.98,WNW,290,2.0,9.0,49,0.00,,,-99.99,,2013-07-24 05:43:00,
2013-07-23 23:43:00,75.0,57.0,29.99,West,270,1.0,8.0,53,0.00,,,-99.99,,2013-07-24 06:43:00,